-> Other stations

1455

Speed(max): 7.6(10.3)knots
Direction:135° ( SE)
Temperature: 17.3°C
Arrived: 2026-05-05 15:45:55 CEST

Past data:
hh:mmknots
Dir (°)
°C
15:43 7.6 11.9 SE(128) 17.2
15:41 6.5 12.4 SE(132) 17.3
15:39 7.6 10.8 SE(136) 17.2
15:37 9.2 14 SE(134) 17.0
15:35 9.7 14.6 SE(137) 17.0
15:33 10.8 14.6 SE(132) 16.8
15:31 10.8 14 SE(132) 17.0
15:29 8.6 11.9 SE(127) 17.2
15:27 9.7 14.6 SE(125) 17.3
15:25 9.2 12.4 SE(135) 17.6
15:23 8.6 12.4 SE(132) 17.8
15:21 9.7 13.5 SE(132) 17.7
15:19 9.2 11.9 SE(129) 17.6
15:17 9.2 11.9 SE(132) 17.7
15 min. averages:
hh:mmknots
Dir (°)
°C
15:45 8.6 14.6 SE(133) 17.1
15:30 9.2 14.6 SE(129) 17.6
15:15 8.1 15.1 ESE(122) 17.8
15:00 6.5 10.8 ESE(122) 17.6
14:45 5.9 9.2 ESE(114) 17.0
14:30 5.9 8.6 ESE(113) 16.9
14:15 5.9 10.3 ESE(123) 17.4
14:00 4.9 8.6 SE(126) 17.5
13:45 4.9 8.1 SE(124) 17.1
13:30 5.4 8.6 SE(128) 17.1
13:15 6.5 11.3 SE(128) 17.3
13:00 7 11.3 SE(124) 17.8
12:45 7 10.8 ESE(114) 17.5
12:30 5.9 10.3 SE(128) 17.0
12:15 7 10.8 SE(127) 18.0
Stations at HR:
1455
-> Other regions

Desktop view
Data provided by Holfuy.
© Holfuy Weather 2026